sensor_id;sensor_type;location;lat;lon;timestamp;P1;durP1;ratioP1;P2;durP2;ratioP2
9413;SDS011;4746;35.664;139.738;2024-02-04T00:00:24;7.17;;;6.33;;
9413;SDS011;4746;35.664;139.738;2024-02-04T00:02:51;8.97;;;6.40;;
9413;SDS011;4746;35.664;139.738;2024-02-04T00:05:19;7.37;;;6.20;;
9413;SDS011;4746;35.664;139.738;2024-02-04T00:07:46;7.23;;;6.37;;
9413;SDS011;4746;35.664;139.738;2024-02-04T00:10:14;6.20;;;5.60;;
9413;SDS011;4746;35.664;139.738;2024-02-04T00:12:43;6.70;;;6.00;;
9413;SDS011;4746;35.664;139.738;2024-02-04T00:15:11;6.77;;;6.20;;
9413;SDS011;4746;35.664;139.738;2024-02-04T00:17:38;7.70;;;6.00;;
9413;SDS011;4746;35.664;139.738;2024-02-04T00:20:06;5.63;;;5.03;;
9413;SDS011;4746;35.664;139.738;2024-02-04T00:22:34;6.30;;;5.70;;
9413;SDS011;4746;35.664;139.738;2024-02-04T00:25:06;6.87;;;6.27;;
9413;SDS011;4746;35.664;139.738;2024-02-04T00:27:37;6.50;;;5.90;;
9413;SDS011;4746;35.664;139.738;2024-02-04T00:30:05;7.13;;;6.43;;
9413;SDS011;4746;35.664;139.738;2024-02-04T00:32:33;7.33;;;6.40;;
9413;SDS011;4746;35.664;139.738;2024-02-04T00:35:00;10.00;;;7.53;;
9413;SDS011;4746;35.664;139.738;2024-02-04T00:37:28;7.77;;;7.03;;
9413;SDS011;4746;35.664;139.738;2024-02-04T00:39:56;8.37;;;7.27;;
9413;SDS011;4746;35.664;139.738;2024-02-04T00:42:23;8.33;;;7.40;;
9413;SDS011;4746;35.664;139.738;2024-02-04T00:44:50;8.00;;;7.23;;
9413;SDS011;4746;35.664;139.738;2024-02-04T00:47:18;7.87;;;7.10;;
9413;SDS011;4746;35.664;139.738;2024-02-04T00:49:45;7.63;;;6.83;;
9413;SDS011;4746;35.664;139.738;2024-02-04T00:52:13;8.70;;;7.80;;
9413;SDS011;4746;35.664;139.738;2024-02-04T00:54:41;8.83;;;7.63;;
9413;SDS011;4746;35.664;139.738;2024-02-04T00:57:08;8.27;;;7.57;;
9413;SDS011;4746;35.664;139.738;2024-02-04T00:59:36;7.80;;;7.07;;
9413;SDS011;4746;35.664;139.738;2024-02-04T01:02:03;10.40;;;7.93;;
9413;SDS011;4746;35.664;139.738;2024-02-04T01:04:31;7.83;;;7.23;;
9413;SDS011;4746;35.664;139.738;2024-02-04T01:06:59;9.03;;;7.77;;
9413;SDS011;4746;35.664;139.738;2024-02-04T01:09:27;8.13;;;7.43;;
9413;SDS011;4746;35.664;139.738;2024-02-04T01:11:55;8.70;;;7.23;;
9413;SDS011;4746;35.664;139.738;2024-02-04T01:14:23;7.53;;;6.83;;
9413;SDS011;4746;35.664;139.738;2024-02-04T01:16:51;9.20;;;8.30;;
9413;SDS011;4746;35.664;139.738;2024-02-04T01:19:18;9.00;;;8.20;;
9413;SDS011;4746;35.664;139.738;2024-02-04T01:21:47;10.43;;;9.43;;
9413;SDS011;4746;35.664;139.738;2024-02-04T01:24:14;9.83;;;8.83;;
9413;SDS011;4746;35.664;139.738;2024-02-04T01:26:42;9.50;;;8.57;;
9413;SDS011;4746;35.664;139.738;2024-02-04T01:29:11;9.30;;;7.50;;
9413;SDS011;4746;35.664;139.738;2024-02-04T01:31:38;9.37;;;8.47;;
9413;SDS011;4746;35.664;139.738;2024-02-04T01:34:07;8.80;;;8.10;;
9413;SDS011;4746;35.664;139.738;2024-02-04T01:36:34;8.77;;;7.87;;
9413;SDS011;4746;35.664;139.738;2024-02-04T01:39:02;8.60;;;7.80;;
9413;SDS011;4746;35.664;139.738;2024-02-04T01:41:30;8.97;;;8.07;;
9413;SDS011;4746;35.664;139.738;2024-02-04T01:43:58;9.33;;;8.13;;
9413;SDS011;4746;35.664;139.738;2024-02-04T01:46:27;9.27;;;7.67;;
9413;SDS011;4746;35.664;139.738;2024-02-04T01:48:55;8.43;;;7.73;;
9413;SDS011;4746;35.664;139.738;2024-02-04T01:51:23;8.70;;;7.90;;
9413;SDS011;4746;35.664;139.738;2024-02-04T01:53:51;9.03;;;7.77;;
9413;SDS011;4746;35.664;139.738;2024-02-04T01:56:19;9.33;;;8.13;;
9413;SDS011;4746;35.664;139.738;2024-02-04T01:58:46;8.50;;;7.70;;
9413;SDS011;4746;35.664;139.738;2024-02-04T02:01:15;9.60;;;7.77;;
9413;SDS011;4746;35.664;139.738;2024-02-04T02:03:43;8.90;;;8.03;;
9413;SDS011;4746;35.664;139.738;2024-02-04T02:06:11;8.33;;;7.07;;
9413;SDS011;4746;35.664;139.738;2024-02-04T02:08:40;7.97;;;7.33;;
9413;SDS011;4746;35.664;139.738;2024-02-04T02:11:11;7.83;;;7.13;;
9413;SDS011;4746;35.664;139.738;2024-02-04T02:14:02;8.07;;;7.37;;
9413;SDS011;4746;35.664;139.738;2024-02-04T02:16:37;8.40;;;7.60;;
9413;SDS011;4746;35.664;139.738;2024-02-04T02:24:50;6.97;;;6.37;;
9413;SDS011;4746;35.664;139.738;2024-02-04T02:27:21;7.83;;;7.13;;
9413;SDS011;4746;35.664;139.738;2024-02-04T02:29:48;7.37;;;6.73;;
9413;SDS011;4746;35.664;139.738;2024-02-04T02:32:16;7.77;;;7.00;;
9413;SDS011;4746;35.664;139.738;2024-02-04T02:34:44;7.60;;;6.97;;
9413;SDS011;4746;35.664;139.738;2024-02-04T02:40:02;7.83;;;7.17;;
9413;SDS011;4746;35.664;139.738;2024-02-04T02:42:46;7.63;;;6.87;;
9413;SDS011;4746;35.664;139.738;2024-02-04T02:45:15;9.07;;;8.17;;
9413;SDS011;4746;35.664;139.738;2024-02-04T02:47:45;8.20;;;7.50;;
9413;SDS011;4746;35.664;139.738;2024-02-04T02:50:15;8.20;;;7.50;;
9413;SDS011;4746;35.664;139.738;2024-02-04T02:52:43;7.10;;;6.50;;
9413;SDS011;4746;35.664;139.738;2024-02-04T02:55:10;7.60;;;6.93;;
9413;SDS011;4746;35.664;139.738;2024-02-04T02:57:38;8.27;;;6.87;;
9413;SDS011;4746;35.664;139.738;2024-02-04T03:00:05;8.57;;;6.67;;
9413;SDS011;4746;35.664;139.738;2024-02-04T03:02:34;7.90;;;7.17;;
9413;SDS011;4746;35.664;139.738;2024-02-04T03:05:02;7.07;;;6.47;;
9413;SDS011;4746;35.664;139.738;2024-02-04T03:07:29;7.33;;;6.63;;
9413;SDS011;4746;35.664;139.738;2024-02-04T03:09:59;7.77;;;7.17;;
9413;SDS011;4746;35.664;139.738;2024-02-04T03:12:26;10.17;;;7.00;;
9413;SDS011;4746;35.664;139.738;2024-02-04T03:14:54;8.00;;;6.73;;
9413;SDS011;4746;35.664;139.738;2024-02-04T03:17:21;7.43;;;6.73;;
9413;SDS011;4746;35.664;139.738;2024-02-04T03:19:49;6.30;;;5.47;;
9413;SDS011;4746;35.664;139.738;2024-02-04T03:22:22;6.50;;;5.90;;
9413;SDS011;4746;35.664;139.738;2024-02-04T03:24:51;8.80;;;7.33;;
9413;SDS011;4746;35.664;139.738;2024-02-04T03:27:18;7.53;;;6.27;;
9413;SDS011;4746;35.664;139.738;2024-02-04T03:29:47;8.50;;;6.40;;
9413;SDS011;4746;35.664;139.738;2024-02-04T03:32:14;8.03;;;6.70;;
9413;SDS011;4746;35.664;139.738;2024-02-04T03:34:42;7.53;;;6.83;;
9413;SDS011;4746;35.664;139.738;2024-02-04T03:37:10;7.77;;;7.07;;
9413;SDS011;4746;35.664;139.738;2024-02-04T03:39:37;7.30;;;6.63;;
9413;SDS011;4746;35.664;139.738;2024-02-04T03:42:05;6.70;;;6.10;;
9413;SDS011;4746;35.664;139.738;2024-02-04T03:44:32;7.30;;;6.60;;
9413;SDS011;4746;35.664;139.738;2024-02-04T03:47:00;7.20;;;6.60;;
9413;SDS011;4746;35.664;139.738;2024-02-04T03:49:29;7.83;;;5.97;;
9413;SDS011;4746;35.664;139.738;2024-02-04T03:51:58;7.27;;;6.57;;
9413;SDS011;4746;35.664;139.738;2024-02-04T03:54:26;7.77;;;6.97;;
9413;SDS011;4746;35.664;139.738;2024-02-04T03:56:53;7.77;;;6.67;;
9413;SDS011;4746;35.664;139.738;2024-02-04T03:59:21;7.53;;;6.87;;
9413;SDS011;4746;35.664;139.738;2024-02-04T04:01:48;7.37;;;6.67;;
9413;SDS011;4746;35.664;139.738;2024-02-04T04:04:18;7.23;;;6.53;;
9413;SDS011;4746;35.664;139.738;2024-02-04T04:06:46;7.70;;;7.00;;
9413;SDS011;4746;35.664;139.738;2024-02-04T04:09:14;7.33;;;6.63;;
9413;SDS011;4746;35.664;139.738;2024-02-04T04:11:41;7.73;;;7.03;;
9413;SDS011;4746;35.664;139.738;2024-02-04T04:14:09;7.60;;;6.83;;
9413;SDS011;4746;35.664;139.738;2024-02-04T04:16:36;7.80;;;6.90;;
9413;SDS011;4746;35.664;139.738;2024-02-04T04:19:07;7.10;;;6.40;;
9413;SDS011;4746;35.664;139.738;2024-02-04T04:21:35;7.47;;;6.70;;
9413;SDS011;4746;35.664;139.738;2024-02-04T04:24:05;7.90;;;7.20;;
9413;SDS011;4746;35.664;139.738;2024-02-04T04:26:33;7.07;;;6.47;;
9413;SDS011;4746;35.664;139.738;2024-02-04T04:29:00;7.23;;;6.10;;
9413;SDS011;4746;35.664;139.738;2024-02-04T04:31:28;6.67;;;5.97;;
9413;SDS011;4746;35.664;139.738;2024-02-04T04:33:56;6.47;;;5.87;;
9413;SDS011;4746;35.664;139.738;2024-02-04T04:36:23;6.33;;;5.73;;
9413;SDS011;4746;35.664;139.738;2024-02-04T04:38:50;8.57;;;6.93;;
9413;SDS011;4746;35.664;139.738;2024-02-04T04:41:18;6.70;;;6.07;;
9413;SDS011;4746;35.664;139.738;2024-02-04T04:43:46;7.00;;;6.30;;
9413;SDS011;4746;35.664;139.738;2024-02-04T04:46:13;7.50;;;6.90;;
9413;SDS011;4746;35.664;139.738;2024-02-04T04:48:41;6.63;;;5.93;;
9413;SDS011;4746;35.664;139.738;2024-02-04T04:51:08;7.40;;;6.63;;
9413;SDS011;4746;35.664;139.738;2024-02-04T04:53:37;7.83;;;6.80;;
9413;SDS011;4746;35.664;139.738;2024-02-04T04:56:06;8.20;;;6.57;;
9413;SDS011;4746;35.664;139.738;2024-02-04T04:58:35;7.93;;;7.23;;
9413;SDS011;4746;35.664;139.738;2024-02-04T05:01:02;7.87;;;7.00;;
9413;SDS011;4746;35.664;139.738;2024-02-04T05:03:31;8.40;;;6.90;;
9413;SDS011;4746;35.664;139.738;2024-02-04T05:06:01;7.67;;;6.57;;
9413;SDS011;4746;35.664;139.738;2024-02-04T05:08:29;7.40;;;6.70;;
9413;SDS011;4746;35.664;139.738;2024-02-04T05:10:56;7.53;;;6.83;;
9413;SDS011;4746;35.664;139.738;2024-02-04T05:13:24;6.70;;;6.10;;
9413;SDS011;4746;35.664;139.738;2024-02-04T05:15:51;7.37;;;6.73;;
9413;SDS011;4746;35.664;139.738;2024-02-04T05:18:20;6.87;;;6.27;;
9413;SDS011;4746;35.664;139.738;2024-02-04T05:20:47;6.83;;;6.23;;
9413;SDS011;4746;35.664;139.738;2024-02-04T05:23:15;7.10;;;6.40;;
9413;SDS011;4746;35.664;139.738;2024-02-04T05:25:42;7.67;;;6.53;;
9413;SDS011;4746;35.664;139.738;2024-02-04T05:28:10;7.30;;;6.60;;
9413;SDS011;4746;35.664;139.738;2024-02-04T05:30:37;6.67;;;5.90;;
9413;SDS011;4746;35.664;139.738;2024-02-04T05:33:05;6.77;;;6.17;;
9413;SDS011;4746;35.664;139.738;2024-02-04T05:35:32;6.53;;;6.03;;
9413;SDS011;4746;35.664;139.738;2024-02-04T05:38:02;7.37;;;6.70;;
9413;SDS011;4746;35.664;139.738;2024-02-04T05:40:30;6.50;;;6.03;;
9413;SDS011;4746;35.664;139.738;2024-02-04T05:42:57;7.07;;;6.37;;
9413;SDS011;4746;35.664;139.738;2024-02-04T05:45:25;7.30;;;6.67;;
9413;SDS011;4746;35.664;139.738;2024-02-04T05:47:53;7.10;;;6.40;;
9413;SDS011;4746;35.664;139.738;2024-02-04T05:50:20;7.43;;;6.73;;
9413;SDS011;4746;35.664;139.738;2024-02-04T05:52:48;8.33;;;7.40;;
9413;SDS011;4746;35.664;139.738;2024-02-04T05:55:15;9.07;;;7.10;;
9413;SDS011;4746;35.664;139.738;2024-02-04T05:57:43;7.93;;;6.23;;
9413;SDS011;4746;35.664;139.738;2024-02-04T06:00:11;7.83;;;7.13;;
9413;SDS011;4746;35.664;139.738;2024-02-04T06:02:39;7.53;;;6.60;;
9413;SDS011;4746;35.664;139.738;2024-02-04T06:05:09;7.90;;;7.13;;
9413;SDS011;4746;35.664;139.738;2024-02-04T06:07:39;8.53;;;6.70;;
9413;SDS011;4746;35.664;139.738;2024-02-04T06:10:10;7.73;;;6.93;;
9413;SDS011;4746;35.664;139.738;2024-02-04T06:12:37;8.03;;;7.33;;
9413;SDS011;4746;35.664;139.738;2024-02-04T06:15:13;7.90;;;7.20;;
9413;SDS011;4746;35.664;139.738;2024-02-04T06:17:43;7.90;;;7.20;;
9413;SDS011;4746;35.664;139.738;2024-02-04T06:20:11;8.73;;;7.93;;
9413;SDS011;4746;35.664;139.738;2024-02-04T06:22:38;8.83;;;8.03;;
9413;SDS011;4746;35.664;139.738;2024-02-04T06:25:06;8.40;;;7.60;;
9413;SDS011;4746;35.664;139.738;2024-02-04T06:27:34;8.67;;;7.97;;
9413;SDS011;4746;35.664;139.738;2024-02-04T06:30:01;8.33;;;7.63;;
9413;SDS011;4746;35.664;139.738;2024-02-04T06:32:29;8.40;;;7.60;;
9413;SDS011;4746;35.664;139.738;2024-02-04T06:34:57;8.47;;;7.70;;
9413;SDS011;4746;35.664;139.738;2024-02-04T06:37:24;8.60;;;7.67;;
9413;SDS011;4746;35.664;139.738;2024-02-04T06:39:52;8.40;;;7.70;;
9413;SDS011;4746;35.664;139.738;2024-02-04T06:42:19;8.47;;;7.70;;
9413;SDS011;4746;35.664;139.738;2024-02-04T06:44:47;8.13;;;7.43;;
9413;SDS011;4746;35.664;139.738;2024-02-04T06:47:14;8.60;;;7.60;;
9413;SDS011;4746;35.664;139.738;2024-02-04T06:49:43;8.43;;;7.60;;
9413;SDS011;4746;35.664;139.738;2024-02-04T06:52:11;8.50;;;7.60;;
9413;SDS011;4746;35.664;139.738;2024-02-04T06:54:39;7.67;;;6.97;;
9413;SDS011;4746;35.664;139.738;2024-02-04T06:57:06;7.17;;;6.47;;
9413;SDS011;4746;35.664;139.738;2024-02-04T06:59:34;7.40;;;6.80;;
9413;SDS011;4746;35.664;139.738;2024-02-04T07:02:01;7.53;;;6.83;;
9413;SDS011;4746;35.664;139.738;2024-02-04T07:04:29;9.43;;;7.10;;
9413;SDS011;4746;35.664;139.738;2024-02-04T07:06:57;8.67;;;6.53;;
9413;SDS011;4746;35.664;139.738;2024-02-04T07:09:26;7.63;;;6.87;;
9413;SDS011;4746;35.664;139.738;2024-02-04T07:11:54;8.10;;;7.17;;
9413;SDS011;4746;35.664;139.738;2024-02-04T07:14:21;7.30;;;6.67;;
9413;SDS011;4746;35.664;139.738;2024-02-04T07:16:49;7.70;;;6.93;;
9413;SDS011;4746;35.664;139.738;2024-02-04T07:19:16;7.00;;;6.30;;
9413;SDS011;4746;35.664;139.738;2024-02-04T07:21:44;7.23;;;6.37;;
9413;SDS011;4746;35.664;139.738;2024-02-04T07:24:12;7.10;;;6.40;;
9413;SDS011;4746;35.664;139.738;2024-02-04T07:26:39;7.27;;;6.50;;
9413;SDS011;4746;35.664;139.738;2024-02-04T07:29:07;7.00;;;6.30;;
9413;SDS011;4746;35.664;139.738;2024-02-04T07:31:34;7.10;;;6.40;;
9413;SDS011;4746;35.664;139.738;2024-02-04T07:34:03;7.33;;;6.63;;
9413;SDS011;4746;35.664;139.738;2024-02-04T07:36:31;7.33;;;6.60;;
9413;SDS011;4746;35.664;139.738;2024-02-04T07:38:59;8.37;;;7.57;;
9413;SDS011;4746;35.664;139.738;2024-02-04T07:41:30;7.37;;;6.77;;
9413;SDS011;4746;35.664;139.738;2024-02-04T07:43:58;8.50;;;6.93;;
9413;SDS011;4746;35.664;139.738;2024-02-04T07:46:25;11.23;;;8.23;;
9413;SDS011;4746;35.664;139.738;2024-02-04T07:48:53;8.60;;;7.43;;
9413;SDS011;4746;35.664;139.738;2024-02-04T07:51:20;8.70;;;8.00;;
9413;SDS011;4746;35.664;139.738;2024-02-04T07:53:48;7.33;;;6.53;;
9413;SDS011;4746;35.664;139.738;2024-02-04T07:56:16;7.83;;;6.63;;
9413;SDS011;4746;35.664;139.738;2024-02-04T07:58:43;8.80;;;7.90;;
9413;SDS011;4746;35.664;139.738;2024-02-04T08:01:11;7.97;;;7.17;;
9413;SDS011;4746;35.664;139.738;2024-02-04T08:03:38;7.73;;;7.03;;
9413;SDS011;4746;35.664;139.738;2024-02-04T08:06:05;9.30;;;7.57;;
9413;SDS011;4746;35.664;139.738;2024-02-04T08:08:34;8.83;;;7.97;;
9413;SDS011;4746;35.664;139.738;2024-02-04T08:11:01;8.87;;;8.03;;
9413;SDS011;4746;35.664;139.738;2024-02-04T08:13:29;9.10;;;8.23;;
9413;SDS011;4746;35.664;139.738;2024-02-04T08:15:56;8.90;;;8.03;;
9413;SDS011;4746;35.664;139.738;2024-02-04T08:18:24;9.60;;;7.27;;
9413;SDS011;4746;35.664;139.738;2024-02-04T08:20:52;10.83;;;9.47;;
9413;SDS011;4746;35.664;139.738;2024-02-04T08:23:19;9.17;;;8.23;;
9413;SDS011;4746;35.664;139.738;2024-02-04T08:25:47;10.27;;;9.37;;
9413;SDS011;4746;35.664;139.738;2024-02-04T08:28:15;9.90;;;9.00;;
9413;SDS011;4746;35.664;139.738;2024-02-04T08:30:43;10.57;;;9.57;;
9413;SDS011;4746;35.664;139.738;2024-02-04T08:33:10;10.00;;;9.10;;
9413;SDS011;4746;35.664;139.738;2024-02-04T08:35:38;10.93;;;10.03;;
9413;SDS011;4746;35.664;139.738;2024-02-04T08:38:05;10.67;;;9.67;;
9413;SDS011;4746;35.664;139.738;2024-02-04T08:40:33;11.07;;;10.00;;
9413;SDS011;4746;35.664;139.738;2024-02-04T08:43:00;10.00;;;9.20;;
9413;SDS011;4746;35.664;139.738;2024-02-04T08:45:28;11.43;;;10.23;;
9413;SDS011;4746;35.664;139.738;2024-02-04T08:47:55;11.37;;;9.97;;
9413;SDS011;4746;35.664;139.738;2024-02-04T08:50:23;10.73;;;9.73;;
9413;SDS011;4746;35.664;139.738;2024-02-04T08:52:50;10.73;;;9.73;;
9413;SDS011;4746;35.664;139.738;2024-02-04T08:55:18;10.67;;;9.63;;
9413;SDS011;4746;35.664;139.738;2024-02-04T08:57:45;10.00;;;9.00;;
9413;SDS011;4746;35.664;139.738;2024-02-04T09:00:16;10.70;;;9.60;;
9413;SDS011;4746;35.664;139.738;2024-02-04T09:02:44;10.57;;;9.57;;
9413;SDS011;4746;35.664;139.738;2024-02-04T09:05:12;10.47;;;9.07;;
9413;SDS011;4746;35.664;139.738;2024-02-04T09:07:41;9.40;;;8.43;;
9413;SDS011;4746;35.664;139.738;2024-02-04T09:10:09;9.77;;;8.77;;
9413;SDS011;4746;35.664;139.738;2024-02-04T09:12:36;11.30;;;10.13;;
9413;SDS011;4746;35.664;139.738;2024-02-04T09:15:04;9.83;;;8.93;;
9413;SDS011;4746;35.664;139.738;2024-02-04T09:17:33;9.67;;;8.87;;
9413;SDS011;4746;35.664;139.738;2024-02-04T09:20:01;10.67;;;9.67;;
9413;SDS011;4746;35.664;139.738;2024-02-04T09:22:30;10.03;;;9.03;;
9413;SDS011;4746;35.664;139.738;2024-02-04T09:24:57;9.97;;;9.07;;
9413;SDS011;4746;35.664;139.738;2024-02-04T09:27:25;10.03;;;8.53;;
9413;SDS011;4746;35.664;139.738;2024-02-04T09:29:53;10.97;;;9.20;;
9413;SDS011;4746;35.664;139.738;2024-02-04T09:32:21;9.57;;;8.67;;
9413;SDS011;4746;35.664;139.738;2024-02-04T09:34:48;9.67;;;8.80;;
9413;SDS011;4746;35.664;139.738;2024-02-04T09:37:16;10.53;;;9.60;;
9413;SDS011;4746;35.664;139.738;2024-02-04T09:39:43;10.17;;;9.17;;
9413;SDS011;4746;35.664;139.738;2024-02-04T09:42:13;10.20;;;9.27;;
9413;SDS011;4746;35.664;139.738;2024-02-04T09:44:49;10.23;;;9.33;;
9413;SDS011;4746;35.664;139.738;2024-02-04T09:47:18;9.57;;;8.57;;
9413;SDS011;4746;35.664;139.738;2024-02-04T09:49:47;10.57;;;9.60;;
9413;SDS011;4746;35.664;139.738;2024-02-04T09:52:16;10.67;;;9.57;;
9413;SDS011;4746;35.664;139.738;2024-02-04T09:54:55;10.67;;;9.57;;
9413;SDS011;4746;35.664;139.738;2024-02-04T09:57:32;11.43;;;10.43;;
9413;SDS011;4746;35.664;139.738;2024-02-04T10:00:05;12.13;;;10.93;;
9413;SDS011;4746;35.664;139.738;2024-02-04T10:02:34;12.10;;;11.00;;
9413;SDS011;4746;35.664;139.738;2024-02-04T10:05:02;12.83;;;11.43;;
9413;SDS011;4746;35.664;139.738;2024-02-04T10:07:30;12.30;;;11.10;;
9413;SDS011;4746;35.664;139.738;2024-02-04T10:09:57;12.07;;;10.90;;
9413;SDS011;4746;35.664;139.738;2024-02-04T10:12:25;12.23;;;11.00;;
9413;SDS011;4746;35.664;139.738;2024-02-04T10:14:53;11.17;;;10.07;;
9413;SDS011;4746;35.664;139.738;2024-02-04T10:17:20;11.30;;;10.20;;
9413;SDS011;4746;35.664;139.738;2024-02-04T10:19:49;12.97;;;11.70;;
9413;SDS011;4746;35.664;139.738;2024-02-04T10:22:16;12.67;;;11.33;;
9413;SDS011;4746;35.664;139.738;2024-02-04T10:24:44;14.03;;;12.63;;
9413;SDS011;4746;35.664;139.738;2024-02-04T10:27:14;12.63;;;11.47;;
9413;SDS011;4746;35.664;139.738;2024-02-04T10:29:42;11.33;;;10.43;;
9413;SDS011;4746;35.664;139.738;2024-02-04T10:32:10;12.50;;;11.23;;
9413;SDS011;4746;35.664;139.738;2024-02-04T10:34:38;13.40;;;12.07;;
9413;SDS011;4746;35.664;139.738;2024-02-04T10:37:06;14.00;;;12.63;;
9413;SDS011;4746;35.664;139.738;2024-02-04T10:39:33;12.50;;;11.33;;
9413;SDS011;4746;35.664;139.738;2024-02-04T10:42:01;13.17;;;11.83;;
9413;SDS011;4746;35.664;139.738;2024-02-04T10:44:31;12.37;;;11.17;;
9413;SDS011;4746;35.664;139.738;2024-02-04T10:47:05;12.17;;;11.17;;
9413;SDS011;4746;35.664;139.738;2024-02-04T10:49:40;11.97;;;10.87;;
9413;SDS011;4746;35.664;139.738;2024-02-04T10:52:18;12.77;;;11.63;;
9413;SDS011;4746;35.664;139.738;2024-02-04T10:54:49;13.10;;;11.70;;
9413;SDS011;4746;35.664;139.738;2024-02-04T10:57:21;13.80;;;12.27;;
9413;SDS011;4746;35.664;139.738;2024-02-04T10:59:49;13.87;;;12.47;;
9413;SDS011;4746;35.664;139.738;2024-02-04T11:02:19;13.40;;;12.00;;
9413;SDS011;4746;35.664;139.738;2024-02-04T11:04:48;12.63;;;11.53;;
9413;SDS011;4746;35.664;139.738;2024-02-04T11:07:17;13.47;;;12.30;;
9413;SDS011;4746;35.664;139.738;2024-02-04T11:09:46;13.57;;;12.17;;
9413;SDS011;4746;35.664;139.738;2024-02-04T11:12:18;13.60;;;12.27;;
9413;SDS011;4746;35.664;139.738;2024-02-04T11:14:50;14.07;;;12.87;;
9413;SDS011;4746;35.664;139.738;2024-02-04T11:26:33;13.80;;;12.43;;
9413;SDS011;4746;35.664;139.738;2024-02-04T11:29:05;14.43;;;12.73;;
9413;SDS011;4746;35.664;139.738;2024-02-04T11:31:38;14.67;;;13.30;;
9413;SDS011;4746;35.664;139.738;2024-02-04T11:34:06;14.67;;;13.17;;
9413;SDS011;4746;35.664;139.738;2024-02-04T11:36:38;14.43;;;13.13;;
9413;SDS011;4746;35.664;139.738;2024-02-04T11:39:17;15.57;;;13.67;;
9413;SDS011;4746;35.664;139.738;2024-02-04T11:41:49;15.30;;;13.67;;
9413;SDS011;4746;35.664;139.738;2024-02-04T11:44:35;15.67;;;14.27;;
9413;SDS011;4746;35.664;139.738;2024-02-04T11:47:02;15.80;;;13.87;;
9413;SDS011;4746;35.664;139.738;2024-02-04T11:49:30;16.80;;;15.13;;
9413;SDS011;4746;35.664;139.738;2024-02-04T11:51:57;15.07;;;13.60;;
9413;SDS011;4746;35.664;139.738;2024-02-04T11:54:26;13.77;;;12.37;;
9413;SDS011;4746;35.664;139.738;2024-02-04T11:56:53;14.73;;;13.33;;
9413;SDS011;4746;35.664;139.738;2024-02-04T11:59:23;13.93;;;12.57;;
9413;SDS011;4746;35.664;139.738;2024-02-04T12:02:04;13.60;;;12.30;;
9413;SDS011;4746;35.664;139.738;2024-02-04T12:04:33;13.43;;;12.03;;
9413;SDS011;4746;35.664;139.738;2024-02-04T12:07:02;12.33;;;11.07;;
9413;SDS011;4746;35.664;139.738;2024-02-04T12:09:31;12.63;;;11.33;;
9413;SDS011;4746;35.664;139.738;2024-02-04T12:11:58;12.53;;;11.33;;
9413;SDS011;4746;35.664;139.738;2024-02-04T12:14:28;10.67;;;9.67;;
9413;SDS011;4746;35.664;139.738;2024-02-04T12:16:57;7.93;;;7.13;;
9413;SDS011;4746;35.664;139.738;2024-02-04T12:19:24;8.10;;;6.33;;
9413;SDS011;4746;35.664;139.738;2024-02-04T12:21:52;7.30;;;6.60;;
9413;SDS011;4746;35.664;139.738;2024-02-04T12:24:20;5.93;;;5.43;;
9413;SDS011;4746;35.664;139.738;2024-02-04T12:26:48;6.00;;;4.00;;
9413;SDS011;4746;35.664;139.738;2024-02-04T12:29:16;7.20;;;5.20;;
9413;SDS011;4746;35.664;139.738;2024-02-04T12:31:44;5.90;;;5.23;;
9413;SDS011;4746;35.664;139.738;2024-02-04T12:34:12;5.00;;;4.60;;
9413;SDS011;4746;35.664;139.738;2024-02-04T12:36:41;4.40;;;4.00;;
9413;SDS011;4746;35.664;139.738;2024-02-04T12:39:09;3.73;;;3.53;;
9413;SDS011;4746;35.664;139.738;2024-02-04T12:41:37;3.90;;;3.50;;
9413;SDS011;4746;35.664;139.738;2024-02-04T12:44:05;4.23;;;3.30;;
9413;SDS011;4746;35.664;139.738;2024-02-04T12:46:32;3.93;;;3.50;;
9413;SDS011;4746;35.664;139.738;2024-02-04T12:49:00;3.90;;;3.60;;
9413;SDS011;4746;35.664;139.738;2024-02-04T12:51:31;3.47;;;3.10;;
9413;SDS011;4746;35.664;139.738;2024-02-04T12:54:10;3.77;;;3.40;;
9413;SDS011;4746;35.664;139.738;2024-02-04T12:59:24;2.70;;;2.50;;
9413;SDS011;4746;35.664;139.738;2024-02-04T13:02:00;2.73;;;2.53;;
9413;SDS011;4746;35.664;139.738;2024-02-04T13:04:36;2.43;;;2.23;;
9413;SDS011;4746;35.664;139.738;2024-02-04T13:07:11;2.53;;;2.37;;
9413;SDS011;4746;35.664;139.738;2024-02-04T13:09:43;1.90;;;1.80;;
9413;SDS011;4746;35.664;139.738;2024-02-04T13:12:10;1.87;;;1.77;;
9413;SDS011;4746;35.664;139.738;2024-02-04T13:14:42;2.27;;;2.13;;
9413;SDS011;4746;35.664;139.738;2024-02-04T13:17:11;2.60;;;2.27;;
9413;SDS011;4746;35.664;139.738;2024-02-04T13:19:38;2.40;;;2.20;;
9413;SDS011;4746;35.664;139.738;2024-02-04T13:22:07;2.10;;;2.00;;
9413;SDS011;4746;35.664;139.738;2024-02-04T13:24:35;2.37;;;1.93;;
9413;SDS011;4746;35.664;139.738;2024-02-04T13:27:04;2.00;;;1.67;;
9413;SDS011;4746;35.664;139.738;2024-02-04T13:29:34;2.37;;;2.00;;
9413;SDS011;4746;35.664;139.738;2024-02-04T13:32:02;2.17;;;1.90;;
9413;SDS011;4746;35.664;139.738;2024-02-04T13:34:33;2.10;;;2.00;;
9413;SDS011;4746;35.664;139.738;2024-02-04T13:37:00;1.77;;;1.67;;
9413;SDS011;4746;35.664;139.738;2024-02-04T13:39:28;2.07;;;1.90;;
9413;SDS011;4746;35.664;139.738;2024-02-04T13:41:56;3.27;;;2.13;;
9413;SDS011;4746;35.664;139.738;2024-02-04T13:44:23;2.10;;;2.00;;
9413;SDS011;4746;35.664;139.738;2024-02-04T13:46:51;2.37;;;2.17;;
9413;SDS011;4746;35.664;139.738;2024-02-04T13:49:18;1.83;;;1.70;;
9413;SDS011;4746;35.664;139.738;2024-02-04T13:51:47;2.03;;;1.93;;
9413;SDS011;4746;35.664;139.738;2024-02-04T13:54:15;3.00;;;1.63;;
9413;SDS011;4746;35.664;139.738;2024-02-04T13:56:42;2.83;;;1.80;;
9413;SDS011;4746;35.664;139.738;2024-02-04T13:59:10;2.80;;;1.40;;
9413;SDS011;4746;35.664;139.738;2024-02-04T14:01:38;1.97;;;1.87;;
9413;SDS011;4746;35.664;139.738;2024-02-04T14:04:05;1.87;;;1.77;;
9413;SDS011;4746;35.664;139.738;2024-02-04T14:06:33;2.50;;;1.77;;
9413;SDS011;4746;35.664;139.738;2024-02-04T14:09:01;2.50;;;2.30;;
9413;SDS011;4746;35.664;139.738;2024-02-04T14:11:30;2.00;;;1.77;;
9413;SDS011;4746;35.664;139.738;2024-02-04T14:13:58;1.67;;;1.57;;
9413;SDS011;4746;35.664;139.738;2024-02-04T14:16:26;1.73;;;1.63;;
9413;SDS011;4746;35.664;139.738;2024-02-04T14:18:55;1.87;;;1.73;;
9413;SDS011;4746;35.664;139.738;2024-02-04T14:21:22;2.47;;;1.60;;
9413;SDS011;4746;35.664;139.738;2024-02-04T14:23:49;2.83;;;2.10;;
9413;SDS011;4746;35.664;139.738;2024-02-04T14:26:17;1.90;;;1.80;;
9413;SDS011;4746;35.664;139.738;2024-02-04T14:28:47;1.53;;;1.50;;
9413;SDS011;4746;35.664;139.738;2024-02-04T14:31:16;1.90;;;1.40;;
9413;SDS011;4746;35.664;139.738;2024-02-04T14:33:44;1.77;;;1.63;;
9413;SDS011;4746;35.664;139.738;2024-02-04T14:36:13;1.73;;;1.63;;
9413;SDS011;4746;35.664;139.738;2024-02-04T14:38:40;1.93;;;1.83;;
9413;SDS011;4746;35.664;139.738;2024-02-04T14:41:08;1.70;;;1.60;;
9413;SDS011;4746;35.664;139.738;2024-02-04T14:43:35;2.03;;;1.93;;
9413;SDS011;4746;35.664;139.738;2024-02-04T14:46:03;1.57;;;1.47;;
9413;SDS011;4746;35.664;139.738;2024-02-04T14:48:31;1.60;;;1.50;;
9413;SDS011;4746;35.664;139.738;2024-02-04T14:51:02;2.87;;;1.50;;
9413;SDS011;4746;35.664;139.738;2024-02-04T14:53:29;1.90;;;1.80;;
9413;SDS011;4746;35.664;139.738;2024-02-04T14:55:57;2.00;;;1.90;;
9413;SDS011;4746;35.664;139.738;2024-02-04T14:58:24;1.50;;;1.40;;
9413;SDS011;4746;35.664;139.738;2024-02-04T15:00:52;1.83;;;1.73;;
9413;SDS011;4746;35.664;139.738;2024-02-04T15:03:19;1.70;;;1.60;;
9413;SDS011;4746;35.664;139.738;2024-02-04T15:05:47;2.13;;;1.80;;
9413;SDS011;4746;35.664;139.738;2024-02-04T15:08:15;2.13;;;1.93;;
9413;SDS011;4746;35.664;139.738;2024-02-04T15:10:42;1.57;;;1.40;;